sensor_id;sensor_type;location;lat;lon;timestamp;P1;durP1;ratioP1;P2;durP2;ratioP2
18501;SDS011;68437;52.236;5.710;2023-05-23T00:01:00;33.58;;;15.82;;
18501;SDS011;68437;52.236;5.710;2023-05-23T00:03:27;38.28;;;16.13;;
18501;SDS011;68437;52.236;5.710;2023-05-23T00:05:55;39.00;;;15.48;;
18501;SDS011;68437;52.236;5.710;2023-05-23T00:08:23;38.80;;;16.08;;
18501;SDS011;68437;52.236;5.710;2023-05-23T00:10:50;32.53;;;16.25;;
18501;SDS011;68437;52.236;5.710;2023-05-23T00:13:16;35.20;;;15.20;;
18501;SDS011;68437;52.236;5.710;2023-05-23T00:15:47;37.10;;;15.52;;
18501;SDS011;68437;52.236;5.710;2023-05-23T00:18:13;34.67;;;14.90;;
18501;SDS011;68437;52.236;5.710;2023-05-23T00:20:40;31.08;;;14.38;;
18501;SDS011;68437;52.236;5.710;2023-05-23T00:23:08;31.95;;;13.65;;
18501;SDS011;68437;52.236;5.710;2023-05-23T00:25:35;37.78;;;14.82;;
18501;SDS011;68437;52.236;5.710;2023-05-23T00:28:02;37.28;;;14.65;;
18501;SDS011;68437;52.236;5.710;2023-05-23T00:30:30;36.20;;;14.55;;
18501;SDS011;68437;52.236;5.710;2023-05-23T00:32:59;38.47;;;14.60;;
18501;SDS011;68437;52.236;5.710;2023-05-23T00:35:29;27.42;;;12.95;;
18501;SDS011;68437;52.236;5.710;2023-05-23T00:37:56;27.75;;;12.93;;
18501;SDS011;68437;52.236;5.710;2023-05-23T00:40:22;29.17;;;13.73;;
18501;SDS011;68437;52.236;5.710;2023-05-23T00:42:49;32.47;;;13.15;;
18501;SDS011;68437;52.236;5.710;2023-05-23T00:45:16;26.42;;;13.13;;
18501;SDS011;68437;52.236;5.710;2023-05-23T00:47:43;37.30;;;14.25;;
18501;SDS011;68437;52.236;5.710;2023-05-23T00:50:13;33.13;;;13.98;;
18501;SDS011;68437;52.236;5.710;2023-05-23T00:52:41;32.78;;;13.77;;
18501;SDS011;68437;52.236;5.710;2023-05-23T00:55:09;37.88;;;14.55;;
18501;SDS011;68437;52.236;5.710;2023-05-23T00:57:38;28.88;;;13.10;;
18501;SDS011;68437;52.236;5.710;2023-05-23T01:00:08;34.40;;;13.68;;
18501;SDS011;68437;52.236;5.710;2023-05-23T01:02:37;30.80;;;12.70;;
18501;SDS011;68437;52.236;5.710;2023-05-23T01:05:07;27.55;;;12.00;;
18501;SDS011;68437;52.236;5.710;2023-05-23T01:07:36;21.55;;;10.23;;
18501;SDS011;68437;52.236;5.710;2023-05-23T01:10:03;26.52;;;10.30;;
18501;SDS011;68437;52.236;5.710;2023-05-23T01:12:32;20.38;;;10.35;;
18501;SDS011;68437;52.236;5.710;2023-05-23T01:15:07;25.63;;;10.70;;
18501;SDS011;68437;52.236;5.710;2023-05-23T01:17:38;25.08;;;10.27;;
18501;SDS011;68437;52.236;5.710;2023-05-23T01:20:11;19.30;;;9.57;;
18501;SDS011;68437;52.236;5.710;2023-05-23T01:22:56;27.65;;;11.27;;
18501;SDS011;68437;52.236;5.710;2023-05-23T01:25:37;25.35;;;11.18;;
18501;SDS011;68437;52.236;5.710;2023-05-23T01:28:15;21.45;;;10.05;;
18501;SDS011;68437;52.236;5.710;2023-05-23T01:30:44;25.52;;;11.30;;
18501;SDS011;68437;52.236;5.710;2023-05-23T01:33:14;25.48;;;11.20;;
18501;SDS011;68437;52.236;5.710;2023-05-23T01:35:45;26.52;;;12.23;;
18501;SDS011;68437;52.236;5.710;2023-05-23T01:38:15;25.20;;;11.25;;
18501;SDS011;68437;52.236;5.710;2023-05-23T01:40:42;25.90;;;11.40;;
18501;SDS011;68437;52.236;5.710;2023-05-23T01:43:08;27.88;;;11.68;;
18501;SDS011;68437;52.236;5.710;2023-05-23T01:45:37;30.48;;;12.25;;
18501;SDS011;68437;52.236;5.710;2023-05-23T01:48:06;28.13;;;12.07;;
18501;SDS011;68437;52.236;5.710;2023-05-23T01:50:35;26.33;;;12.70;;
18501;SDS011;68437;52.236;5.710;2023-05-23T01:53:03;26.88;;;12.25;;
18501;SDS011;68437;52.236;5.710;2023-05-23T01:55:30;29.33;;;12.82;;
18501;SDS011;68437;52.236;5.710;2023-05-23T01:57:57;31.55;;;12.90;;
18501;SDS011;68437;52.236;5.710;2023-05-23T02:00:25;30.60;;;11.90;;
18501;SDS011;68437;52.236;5.710;2023-05-23T02:02:57;32.80;;;13.00;;
18501;SDS011;68437;52.236;5.710;2023-05-23T02:05:24;31.17;;;12.90;;
18501;SDS011;68437;52.236;5.710;2023-05-23T02:07:53;34.33;;;14.55;;
18501;SDS011;68437;52.236;5.710;2023-05-23T02:10:22;35.28;;;14.07;;
18501;SDS011;68437;52.236;5.710;2023-05-23T02:12:48;32.47;;;13.45;;
18501;SDS011;68437;52.236;5.710;2023-05-23T02:15:15;35.35;;;14.27;;
18501;SDS011;68437;52.236;5.710;2023-05-23T02:17:42;39.13;;;13.35;;
18501;SDS011;68437;52.236;5.710;2023-05-23T02:20:10;35.33;;;12.65;;
18501;SDS011;68437;52.236;5.710;2023-05-23T02:22:38;37.03;;;13.10;;
18501;SDS011;68437;52.236;5.710;2023-05-23T02:25:05;35.90;;;12.75;;
18501;SDS011;68437;52.236;5.710;2023-05-23T02:27:33;29.83;;;13.05;;
18501;SDS011;68437;52.236;5.710;2023-05-23T02:30:00;34.15;;;12.80;;
18501;SDS011;68437;52.236;5.710;2023-05-23T02:32:29;32.72;;;12.43;;
18501;SDS011;68437;52.236;5.710;2023-05-23T02:34:56;30.58;;;12.73;;
18501;SDS011;68437;52.236;5.710;2023-05-23T02:37:25;31.35;;;12.65;;
18501;SDS011;68437;52.236;5.710;2023-05-23T02:39:51;27.50;;;12.27;;
18501;SDS011;68437;52.236;5.710;2023-05-23T02:42:18;31.20;;;12.43;;
18501;SDS011;68437;52.236;5.710;2023-05-23T02:44:45;24.98;;;11.07;;
18501;SDS011;68437;52.236;5.710;2023-05-23T02:47:12;27.95;;;10.48;;
18501;SDS011;68437;52.236;5.710;2023-05-23T02:49:38;20.00;;;9.63;;
18501;SDS011;68437;52.236;5.710;2023-05-23T02:52:05;23.02;;;10.48;;
18501;SDS011;68437;52.236;5.710;2023-05-23T02:54:33;22.83;;;10.10;;
18501;SDS011;68437;52.236;5.710;2023-05-23T02:57:00;30.30;;;10.82;;
18501;SDS011;68437;52.236;5.710;2023-05-23T02:59:28;30.17;;;10.50;;
18501;SDS011;68437;52.236;5.710;2023-05-23T03:01:55;21.25;;;10.02;;
18501;SDS011;68437;52.236;5.710;2023-05-23T03:04:22;24.63;;;9.27;;
18501;SDS011;68437;52.236;5.710;2023-05-23T03:06:52;25.73;;;10.73;;
18501;SDS011;68437;52.236;5.710;2023-05-23T03:09:19;22.73;;;11.10;;
18501;SDS011;68437;52.236;5.710;2023-05-23T03:11:47;23.85;;;9.98;;
18501;SDS011;68437;52.236;5.710;2023-05-23T03:14:14;28.88;;;10.88;;
18501;SDS011;68437;52.236;5.710;2023-05-23T03:16:41;30.02;;;11.15;;
18501;SDS011;68437;52.236;5.710;2023-05-23T03:19:08;28.45;;;10.73;;
18501;SDS011;68437;52.236;5.710;2023-05-23T03:21:34;23.90;;;10.52;;
18501;SDS011;68437;52.236;5.710;2023-05-23T03:24:01;28.13;;;10.75;;
18501;SDS011;68437;52.236;5.710;2023-05-23T03:26:28;30.77;;;11.15;;
18501;SDS011;68437;52.236;5.710;2023-05-23T03:28:57;29.67;;;11.50;;
18501;SDS011;68437;52.236;5.710;2023-05-23T03:31:23;27.08;;;10.48;;
18501;SDS011;68437;52.236;5.710;2023-05-23T03:33:50;35.22;;;12.93;;
18501;SDS011;68437;52.236;5.710;2023-05-23T03:36:17;30.83;;;11.80;;
18501;SDS011;68437;52.236;5.710;2023-05-23T03:38:45;33.22;;;11.88;;
18501;SDS011;68437;52.236;5.710;2023-05-23T03:41:12;36.97;;;11.95;;
18501;SDS011;68437;52.236;5.710;2023-05-23T03:43:39;28.90;;;11.13;;
18501;SDS011;68437;52.236;5.710;2023-05-23T03:46:07;33.20;;;11.80;;
18501;SDS011;68437;52.236;5.710;2023-05-23T03:48:34;39.65;;;11.88;;
18501;SDS011;68437;52.236;5.710;2023-05-23T03:51:01;30.80;;;11.23;;
18501;SDS011;68437;52.236;5.710;2023-05-23T03:53:28;32.33;;;11.40;;
18501;SDS011;68437;52.236;5.710;2023-05-23T03:55:54;37.97;;;11.48;;
18501;SDS011;68437;52.236;5.710;2023-05-23T03:58:21;34.08;;;11.77;;
18501;SDS011;68437;52.236;5.710;2023-05-23T04:00:48;35.80;;;11.48;;
18501;SDS011;68437;52.236;5.710;2023-05-23T04:03:18;34.55;;;11.90;;
18501;SDS011;68437;52.236;5.710;2023-05-23T04:05:45;39.05;;;11.90;;
18501;SDS011;68437;52.236;5.710;2023-05-23T04:08:12;39.75;;;12.05;;
18501;SDS011;68437;52.236;5.710;2023-05-23T04:10:41;41.20;;;12.52;;
18501;SDS011;68437;52.236;5.710;2023-05-23T04:13:08;35.72;;;12.32;;
18501;SDS011;68437;52.236;5.710;2023-05-23T04:15:35;31.65;;;11.32;;
18501;SDS011;68437;52.236;5.710;2023-05-23T04:18:03;32.88;;;11.40;;
18501;SDS011;68437;52.236;5.710;2023-05-23T04:20:32;34.47;;;11.90;;
18501;SDS011;68437;52.236;5.710;2023-05-23T04:22:59;32.40;;;12.05;;
18501;SDS011;68437;52.236;5.710;2023-05-23T04:25:26;29.58;;;11.98;;
18501;SDS011;68437;52.236;5.710;2023-05-23T04:27:53;37.15;;;12.18;;
18501;SDS011;68437;52.236;5.710;2023-05-23T04:30:20;31.38;;;11.75;;
18501;SDS011;68437;52.236;5.710;2023-05-23T04:32:47;32.47;;;11.15;;
18501;SDS011;68437;52.236;5.710;2023-05-23T04:35:16;29.00;;;10.65;;
18501;SDS011;68437;52.236;5.710;2023-05-23T04:37:44;31.98;;;10.82;;
18501;SDS011;68437;52.236;5.710;2023-05-23T04:40:11;29.75;;;10.63;;
18501;SDS011;68437;52.236;5.710;2023-05-23T04:42:39;34.63;;;10.75;;
18501;SDS011;68437;52.236;5.710;2023-05-23T04:45:08;31.10;;;10.52;;
18501;SDS011;68437;52.236;5.710;2023-05-23T04:47:36;40.42;;;11.02;;
18501;SDS011;68437;52.236;5.710;2023-05-23T04:50:03;34.50;;;11.30;;
18501;SDS011;68437;52.236;5.710;2023-05-23T04:52:30;31.05;;;10.60;;
18501;SDS011;68437;52.236;5.710;2023-05-23T04:54:59;32.97;;;9.82;;
18501;SDS011;68437;52.236;5.710;2023-05-23T04:57:26;27.08;;;9.73;;
18501;SDS011;68437;52.236;5.710;2023-05-23T04:59:54;31.52;;;9.50;;
18501;SDS011;68437;52.236;5.710;2023-05-23T05:02:21;30.65;;;9.73;;
18501;SDS011;68437;52.236;5.710;2023-05-23T05:04:50;28.15;;;9.23;;
18501;SDS011;68437;52.236;5.710;2023-05-23T05:07:17;28.85;;;8.48;;
18501;SDS011;68437;52.236;5.710;2023-05-23T05:09:44;25.88;;;7.97;;
18501;SDS011;68437;52.236;5.710;2023-05-23T05:12:15;25.38;;;8.32;;
18501;SDS011;68437;52.236;5.710;2023-05-23T05:14:45;27.95;;;8.35;;
18501;SDS011;68437;52.236;5.710;2023-05-23T05:17:11;20.58;;;8.57;;
18501;SDS011;68437;52.236;5.710;2023-05-23T05:19:38;19.17;;;7.60;;
18501;SDS011;68437;52.236;5.710;2023-05-23T05:22:05;25.08;;;8.18;;
18501;SDS011;68437;52.236;5.710;2023-05-23T05:24:32;26.75;;;7.50;;
18501;SDS011;68437;52.236;5.710;2023-05-23T05:26:59;20.15;;;7.47;;
18501;SDS011;68437;52.236;5.710;2023-05-23T05:29:27;26.20;;;7.80;;
18501;SDS011;68437;52.236;5.710;2023-05-23T05:31:55;27.02;;;7.63;;
18501;SDS011;68437;52.236;5.710;2023-05-23T05:34:22;19.02;;;7.82;;
18501;SDS011;68437;52.236;5.710;2023-05-23T05:36:48;24.35;;;8.07;;
18501;SDS011;68437;52.236;5.710;2023-05-23T05:39:19;26.00;;;7.43;;
18501;SDS011;68437;52.236;5.710;2023-05-23T05:41:49;23.23;;;7.43;;
18501;SDS011;68437;52.236;5.710;2023-05-23T05:44:15;23.85;;;7.13;;
18501;SDS011;68437;52.236;5.710;2023-05-23T05:46:44;22.27;;;7.68;;
18501;SDS011;68437;52.236;5.710;2023-05-23T05:49:12;25.83;;;7.47;;
18501;SDS011;68437;52.236;5.710;2023-05-23T05:51:39;24.98;;;7.00;;
18501;SDS011;68437;52.236;5.710;2023-05-23T05:54:06;22.80;;;6.95;;
18501;SDS011;68437;52.236;5.710;2023-05-23T05:56:33;22.17;;;6.63;;
18501;SDS011;68437;52.236;5.710;2023-05-23T05:58:59;20.20;;;6.78;;
18501;SDS011;68437;52.236;5.710;2023-05-23T06:01:26;21.33;;;7.13;;
18501;SDS011;68437;52.236;5.710;2023-05-23T06:03:56;21.92;;;7.55;;
18501;SDS011;68437;52.236;5.710;2023-05-23T06:06:23;20.90;;;7.50;;
18501;SDS011;68437;52.236;5.710;2023-05-23T06:08:52;24.35;;;7.53;;
18501;SDS011;68437;52.236;5.710;2023-05-23T06:11:18;22.48;;;7.45;;
18501;SDS011;68437;52.236;5.710;2023-05-23T06:13:45;23.27;;;7.07;;
18501;SDS011;68437;52.236;5.710;2023-05-23T06:16:12;20.77;;;6.93;;
18501;SDS011;68437;52.236;5.710;2023-05-23T06:18:40;19.77;;;7.65;;
18501;SDS011;68437;52.236;5.710;2023-05-23T06:21:08;23.02;;;7.50;;
18501;SDS011;68437;52.236;5.710;2023-05-23T06:23:35;20.75;;;7.22;;
18501;SDS011;68437;52.236;5.710;2023-05-23T06:26:02;23.63;;;6.90;;
18501;SDS011;68437;52.236;5.710;2023-05-23T06:28:32;24.40;;;7.47;;
18501;SDS011;68437;52.236;5.710;2023-05-23T06:30:59;23.92;;;7.53;;
18501;SDS011;68437;52.236;5.710;2023-05-23T06:33:26;22.40;;;7.35;;
18501;SDS011;68437;52.236;5.710;2023-05-23T06:35:53;20.10;;;6.93;;
18501;SDS011;68437;52.236;5.710;2023-05-23T06:38:21;21.02;;;6.97;;
18501;SDS011;68437;52.236;5.710;2023-05-23T06:40:48;21.15;;;7.22;;
18501;SDS011;68437;52.236;5.710;2023-05-23T06:43:15;22.60;;;7.28;;
18501;SDS011;68437;52.236;5.710;2023-05-23T06:45:44;20.20;;;6.72;;
18501;SDS011;68437;52.236;5.710;2023-05-23T06:48:11;23.17;;;6.60;;
18501;SDS011;68437;52.236;5.710;2023-05-23T06:50:38;18.88;;;6.88;;
18501;SDS011;68437;52.236;5.710;2023-05-23T06:53:07;23.77;;;6.63;;
18501;SDS011;68437;52.236;5.710;2023-05-23T06:55:37;22.23;;;6.38;;
18501;SDS011;68437;52.236;5.710;2023-05-23T06:58:04;15.18;;;5.85;;
18501;SDS011;68437;52.236;5.710;2023-05-23T07:00:31;17.42;;;6.32;;
18501;SDS011;68437;52.236;5.710;2023-05-23T07:02:58;16.50;;;5.88;;
18501;SDS011;68437;52.236;5.710;2023-05-23T07:05:25;19.95;;;6.78;;
18501;SDS011;68437;52.236;5.710;2023-05-23T07:07:53;18.75;;;6.57;;
18501;SDS011;68437;52.236;5.710;2023-05-23T07:10:20;22.55;;;6.57;;
18501;SDS011;68437;52.236;5.710;2023-05-23T07:12:48;19.75;;;6.65;;
18501;SDS011;68437;52.236;5.710;2023-05-23T07:15:15;22.88;;;6.18;;
18501;SDS011;68437;52.236;5.710;2023-05-23T07:17:42;23.50;;;6.57;;
18501;SDS011;68437;52.236;5.710;2023-05-23T07:20:09;19.63;;;6.82;;
18501;SDS011;68437;52.236;5.710;2023-05-23T07:22:37;25.23;;;6.18;;
18501;SDS011;68437;52.236;5.710;2023-05-23T07:25:07;18.50;;;5.35;;
18501;SDS011;68437;52.236;5.710;2023-05-23T07:27:34;15.38;;;4.90;;
18501;SDS011;68437;52.236;5.710;2023-05-23T07:30:02;17.98;;;4.65;;
18501;SDS011;68437;52.236;5.710;2023-05-23T07:32:30;17.25;;;4.40;;
18501;SDS011;68437;52.236;5.710;2023-05-23T07:34:57;14.45;;;4.00;;
18501;SDS011;68437;52.236;5.710;2023-05-23T07:37:24;22.75;;;3.85;;
18501;SDS011;68437;52.236;5.710;2023-05-23T07:39:52;24.35;;;4.85;;
18501;SDS011;68437;52.236;5.710;2023-05-23T07:42:19;17.40;;;4.00;;
18501;SDS011;68437;52.236;5.710;2023-05-23T07:44:46;17.15;;;4.00;;
18501;SDS011;68437;52.236;5.710;2023-05-23T07:47:14;20.85;;;4.10;;
18501;SDS011;68437;52.236;5.710;2023-05-23T07:49:41;21.70;;;4.43;;
18501;SDS011;68437;52.236;5.710;2023-05-23T07:52:08;22.70;;;4.18;;
18501;SDS011;68437;52.236;5.710;2023-05-23T07:54:35;17.25;;;3.55;;
18501;SDS011;68437;52.236;5.710;2023-05-23T07:57:02;19.17;;;3.75;;
18501;SDS011;68437;52.236;5.710;2023-05-23T07:59:31;24.65;;;4.07;;
18501;SDS011;68437;52.236;5.710;2023-05-23T08:01:58;18.13;;;3.92;;
18501;SDS011;68437;52.236;5.710;2023-05-23T08:04:27;17.65;;;3.78;;
18501;SDS011;68437;52.236;5.710;2023-05-23T08:06:55;22.35;;;3.40;;
18501;SDS011;68437;52.236;5.710;2023-05-23T08:09:21;17.58;;;3.67;;
18501;SDS011;68437;52.236;5.710;2023-05-23T08:11:51;18.85;;;4.00;;
18501;SDS011;68437;52.236;5.710;2023-05-23T08:14:18;17.90;;;3.60;;
18501;SDS011;68437;52.236;5.710;2023-05-23T08:16:45;19.88;;;3.83;;
18501;SDS011;68437;52.236;5.710;2023-05-23T08:19:13;21.15;;;4.15;;
18501;SDS011;68437;52.236;5.710;2023-05-23T08:21:41;24.90;;;4.07;;
18501;SDS011;68437;52.236;5.710;2023-05-23T08:24:08;21.20;;;3.75;;
18501;SDS011;68437;52.236;5.710;2023-05-23T08:26:36;19.20;;;3.72;;
18501;SDS011;68437;52.236;5.710;2023-05-23T08:29:03;18.92;;;3.47;;
18501;SDS011;68437;52.236;5.710;2023-05-23T08:31:30;19.65;;;4.00;;
18501;SDS011;68437;52.236;5.710;2023-05-23T08:33:58;25.50;;;4.05;;
18501;SDS011;68437;52.236;5.710;2023-05-23T08:36:25;24.38;;;4.07;;
18501;SDS011;68437;52.236;5.710;2023-05-23T08:38:53;18.45;;;3.65;;
18501;SDS011;68437;52.236;5.710;2023-05-23T08:41:20;18.60;;;4.05;;
18501;SDS011;68437;52.236;5.710;2023-05-23T08:43:49;23.13;;;4.00;;
18501;SDS011;68437;52.236;5.710;2023-05-23T08:46:16;21.27;;;3.75;;
18501;SDS011;68437;52.236;5.710;2023-05-23T08:48:43;15.25;;;3.53;;
18501;SDS011;68437;52.236;5.710;2023-05-23T08:51:16;22.10;;;3.75;;
18501;SDS011;68437;52.236;5.710;2023-05-23T08:53:44;18.42;;;3.45;;
18501;SDS011;68437;52.236;5.710;2023-05-23T08:56:14;21.92;;;3.55;;
18501;SDS011;68437;52.236;5.710;2023-05-23T08:58:41;19.77;;;3.67;;
18501;SDS011;68437;52.236;5.710;2023-05-23T09:01:09;15.88;;;3.35;;
18501;SDS011;68437;52.236;5.710;2023-05-23T09:03:36;20.25;;;3.78;;
18501;SDS011;68437;52.236;5.710;2023-05-23T09:06:04;16.38;;;3.83;;
18501;SDS011;68437;52.236;5.710;2023-05-23T09:08:31;20.35;;;4.15;;
18501;SDS011;68437;52.236;5.710;2023-05-23T09:10:59;22.23;;;4.10;;
18501;SDS011;68437;52.236;5.710;2023-05-23T09:13:28;18.17;;;3.60;;
18501;SDS011;68437;52.236;5.710;2023-05-23T09:15:55;18.30;;;4.15;;
18501;SDS011;68437;52.236;5.710;2023-05-23T09:18:26;28.15;;;4.57;;
18501;SDS011;68437;52.236;5.710;2023-05-23T09:20:58;27.20;;;4.28;;
18501;SDS011;68437;52.236;5.710;2023-05-23T09:23:24;25.75;;;4.43;;
18501;SDS011;68437;52.236;5.710;2023-05-23T09:25:51;20.48;;;4.25;;
18501;SDS011;68437;52.236;5.710;2023-05-23T09:28:18;21.35;;;4.10;;
18501;SDS011;68437;52.236;5.710;2023-05-23T09:30:46;21.90;;;3.90;;
18501;SDS011;68437;52.236;5.710;2023-05-23T09:33:13;30.98;;;4.40;;
18501;SDS011;68437;52.236;5.710;2023-05-23T09:35:42;18.10;;;4.00;;
18501;SDS011;68437;52.236;5.710;2023-05-23T09:38:12;17.60;;;4.15;;
18501;SDS011;68437;52.236;5.710;2023-05-23T09:40:43;20.58;;;3.92;;
18501;SDS011;68437;52.236;5.710;2023-05-23T09:43:10;17.33;;;3.70;;
18501;SDS011;68437;52.236;5.710;2023-05-23T09:45:37;22.70;;;4.32;;
18501;SDS011;68437;52.236;5.710;2023-05-23T09:48:06;23.58;;;3.97;;
18501;SDS011;68437;52.236;5.710;2023-05-23T09:50:40;23.98;;;3.40;;
18501;SDS011;68437;52.236;5.710;2023-05-23T09:53:10;19.52;;;3.80;;
18501;SDS011;68437;52.236;5.710;2023-05-23T09:55:37;20.38;;;3.47;;
18501;SDS011;68437;52.236;5.710;2023-05-23T09:58:04;22.98;;;3.58;;
18501;SDS011;68437;52.236;5.710;2023-05-23T10:00:31;18.17;;;3.70;;
18501;SDS011;68437;52.236;5.710;2023-05-23T10:03:01;24.38;;;3.83;;
18501;SDS011;68437;52.236;5.710;2023-05-23T10:05:37;22.35;;;4.53;;
18501;SDS011;68437;52.236;5.710;2023-05-23T10:08:11;12.95;;;3.70;;
18501;SDS011;68437;52.236;5.710;2023-05-23T10:13:59;22.65;;;3.85;;
18501;SDS011;68437;52.236;5.710;2023-05-23T10:16:29;20.33;;;3.70;;
18501;SDS011;68437;52.236;5.710;2023-05-23T10:19:14;16.45;;;3.80;;
18501;SDS011;68437;52.236;5.710;2023-05-23T10:21:49;19.20;;;3.53;;
18501;SDS011;68437;52.236;5.710;2023-05-23T10:24:20;23.92;;;4.50;;
18501;SDS011;68437;52.236;5.710;2023-05-23T10:26:47;20.38;;;4.00;;
18501;SDS011;68437;52.236;5.710;2023-05-23T10:29:14;21.52;;;4.18;;
18501;SDS011;68437;52.236;5.710;2023-05-23T10:31:41;21.90;;;4.40;;
18501;SDS011;68437;52.236;5.710;2023-05-23T10:34:12;15.43;;;3.72;;
18501;SDS011;68437;52.236;5.710;2023-05-23T10:36:47;22.50;;;4.00;;
18501;SDS011;68437;52.236;5.710;2023-05-23T10:39:32;17.30;;;3.80;;
18501;SDS011;68437;52.236;5.710;2023-05-23T10:42:16;19.58;;;3.70;;
18501;SDS011;68437;52.236;5.710;2023-05-23T10:44:48;25.85;;;4.45;;
18501;SDS011;68437;52.236;5.710;2023-05-23T10:47:24;19.98;;;4.00;;
18501;SDS011;68437;52.236;5.710;2023-05-23T10:49:54;20.45;;;4.15;;
18501;SDS011;68437;52.236;5.710;2023-05-23T10:52:22;17.98;;;3.78;;
18501;SDS011;68437;52.236;5.710;2023-05-23T10:54:52;21.58;;;3.72;;
18501;SDS011;68437;52.236;5.710;2023-05-23T10:57:20;20.55;;;3.65;;
18501;SDS011;68437;52.236;5.710;2023-05-23T10:59:50;16.85;;;3.63;;
18501;SDS011;68437;52.236;5.710;2023-05-23T11:02:18;19.40;;;3.60;;
18501;SDS011;68437;52.236;5.710;2023-05-23T11:10:37;12.07;;;2.97;;
18501;SDS011;68437;52.236;5.710;2023-05-23T11:13:17;22.23;;;3.65;;
18501;SDS011;68437;52.236;5.710;2023-05-23T11:15:45;21.40;;;3.65;;
18501;SDS011;68437;52.236;5.710;2023-05-23T11:18:18;20.20;;;3.58;;
18501;SDS011;68437;52.236;5.710;2023-05-23T11:20:49;19.17;;;3.92;;
18501;SDS011;68437;52.236;5.710;2023-05-23T11:23:19;24.30;;;3.83;;
18501;SDS011;68437;52.236;5.710;2023-05-23T11:25:47;17.00;;;3.30;;
18501;SDS011;68437;52.236;5.710;2023-05-23T11:28:16;20.27;;;4.18;;
18501;SDS011;68437;52.236;5.710;2023-05-23T11:30:44;18.90;;;3.42;;
18501;SDS011;68437;52.236;5.710;2023-05-23T11:33:14;21.83;;;4.03;;
18501;SDS011;68437;52.236;5.710;2023-05-23T11:35:42;17.00;;;3.80;;
18501;SDS011;68437;52.236;5.710;2023-05-23T11:38:12;21.08;;;2.95;;
18501;SDS011;68437;52.236;5.710;2023-05-23T11:40:40;12.63;;;3.15;;
18501;SDS011;68437;52.236;5.710;2023-05-23T11:43:09;15.75;;;3.25;;
18501;SDS011;68437;52.236;5.710;2023-05-23T11:45:37;16.17;;;2.47;;
18501;SDS011;68437;52.236;5.710;2023-05-23T11:48:05;19.80;;;3.13;;
18501;SDS011;68437;52.236;5.710;2023-05-23T11:50:33;17.90;;;2.97;;
18501;SDS011;68437;52.236;5.710;2023-05-23T11:53:08;20.80;;;2.85;;
18501;SDS011;68437;52.236;5.710;2023-05-23T11:55:36;12.40;;;2.70;;
18501;SDS011;68437;52.236;5.710;2023-05-23T11:58:07;13.30;;;2.95;;
18501;SDS011;68437;52.236;5.710;2023-05-23T12:00:41;13.65;;;3.10;;
18501;SDS011;68437;52.236;5.710;2023-05-23T12:03:09;15.80;;;3.13;;
18501;SDS011;68437;52.236;5.710;2023-05-23T12:05:36;18.92;;;3.10;;
18501;SDS011;68437;52.236;5.710;2023-05-23T12:08:03;17.23;;;3.17;;
18501;SDS011;68437;52.236;5.710;2023-05-23T12:10:30;15.70;;;3.20;;
18501;SDS011;68437;52.236;5.710;2023-05-23T12:12:58;17.55;;;2.90;;
18501;SDS011;68437;52.236;5.710;2023-05-23T12:15:25;19.73;;;2.90;;
18501;SDS011;68437;52.236;5.710;2023-05-23T12:17:52;18.17;;;3.20;;
18501;SDS011;68437;52.236;5.710;2023-05-23T12:20:20;21.63;;;3.22;;
18501;SDS011;68437;52.236;5.710;2023-05-23T12:22:47;16.58;;;3.17;;
18501;SDS011;68437;52.236;5.710;2023-05-23T12:25:14;17.38;;;3.45;;
18501;SDS011;68437;52.236;5.710;2023-05-23T12:27:41;16.08;;;3.38;;
18501;SDS011;68437;52.236;5.710;2023-05-23T12:30:10;22.02;;;3.70;;
18501;SDS011;68437;52.236;5.710;2023-05-23T12:32:39;17.60;;;3.47;;
18501;SDS011;68437;52.236;5.710;2023-05-23T12:35:07;14.13;;;3.08;;
18501;SDS011;68437;52.236;5.710;2023-05-23T12:37:37;18.33;;;3.55;;
18501;SDS011;68437;52.236;5.710;2023-05-23T12:40:13;21.33;;;3.55;;
18501;SDS011;68437;52.236;5.710;2023-05-23T12:42:47;22.95;;;3.25;;
18501;SDS011;68437;52.236;5.710;2023-05-23T12:45:18;16.33;;;3.17;;
18501;SDS011;68437;52.236;5.710;2023-05-23T12:47:45;23.08;;;3.45;;
18501;SDS011;68437;52.236;5.710;2023-05-23T12:50:12;20.75;;;3.47;;
18501;SDS011;68437;52.236;5.710;2023-05-23T12:52:39;16.65;;;3.17;;
18501;SDS011;68437;52.236;5.710;2023-05-23T12:55:06;20.55;;;3.90;;
18501;SDS011;68437;52.236;5.710;2023-05-23T12:57:34;20.90;;;3.25;;
18501;SDS011;68437;52.236;5.710;2023-05-23T13:00:03;18.10;;;3.35;;
18501;SDS011;68437;52.236;5.710;2023-05-23T13:02:32;15.90;;;3.28;;
18501;SDS011;68437;52.236;5.710;2023-05-23T13:04:59;15.88;;;3.00;;
18501;SDS011;68437;52.236;5.710;2023-05-23T13:07:26;19.25;;;3.60;;
18501;SDS011;68437;52.236;5.710;2023-05-23T13:09:53;18.10;;;3.00;;
18501;SDS011;68437;52.236;5.710;2023-05-23T13:12:20;17.77;;;3.35;;
18501;SDS011;68437;52.236;5.710;2023-05-23T13:14:47;21.90;;;3.67;;
18501;SDS011;68437;52.236;5.710;2023-05-23T13:17:17;18.40;;;3.40;;
18501;SDS011;68437;52.236;5.710;2023-05-23T13:19:45;18.63;;;3.25;;
18501;SDS011;68437;52.236;5.710;2023-05-23T13:22:12;21.92;;;3.70;;
18501;SDS011;68437;52.236;5.710;2023-05-23T13:24:39;18.98;;;3.28;;
18501;SDS011;68437;52.236;5.710;2023-05-23T13:27:07;15.00;;;2.95;;
18501;SDS011;68437;52.236;5.710;2023-05-23T13:29:34;14.35;;;3.15;;
18501;SDS011;68437;52.236;5.710;2023-05-23T13:32:01;19.70;;;3.47;;
18501;SDS011;68437;52.236;5.710;2023-05-23T13:34:29;22.10;;;3.55;;
18501;SDS011;68437;52.236;5.710;2023-05-23T13:36:57;19.30;;;3.55;;
18501;SDS011;68437;52.236;5.710;2023-05-23T13:39:24;18.02;;;3.83;;
18501;SDS011;68437;52.236;5.710;2023-05-23T13:41:51;22.50;;;4.03;;
18501;SDS011;68437;52.236;5.710;2023-05-23T13:44:18;17.63;;;3.90;;
18501;SDS011;68437;52.236;5.710;2023-05-23T13:46:48;21.80;;;4.03;;
18501;SDS011;68437;52.236;5.710;2023-05-23T13:49:14;19.75;;;3.28;;
18501;SDS011;68437;52.236;5.710;2023-05-23T13:51:41;21.35;;;3.88;;
18501;SDS011;68437;52.236;5.710;2023-05-23T13:54:10;16.73;;;3.03;;
18501;SDS011;68437;52.236;5.710;2023-05-23T13:56:37;13.25;;;2.83;;
18501;SDS011;68437;52.236;5.710;2023-05-23T13:59:07;18.83;;;3.35;;
18501;SDS011;68437;52.236;5.710;2023-05-23T14:01:34;12.02;;;3.20;;
18501;SDS011;68437;52.236;5.710;2023-05-23T14:04:01;23.73;;;3.67;;
18501;SDS011;68437;52.236;5.710;2023-05-23T14:06:28;17.50;;;3.17;;
18501;SDS011;68437;52.236;5.710;2023-05-23T14:08:56;15.30;;;3.10;;
18501;SDS011;68437;52.236;5.710;2023-05-23T14:11:24;15.48;;;3.00;;
18501;SDS011;68437;52.236;5.710;2023-05-23T14:13:52;18.48;;;3.53;;
18501;SDS011;68437;52.236;5.710;2023-05-23T14:16:19;13.35;;;3.20;;
18501;SDS011;68437;52.236;5.710;2023-05-23T14:18:46;20.08;;;3.60;;
18501;SDS011;68437;52.236;5.710;2023-05-23T14:21:12;13.05;;;3.28;;
18501;SDS011;68437;52.236;5.710;2023-05-23T14:23:39;15.80;;;3.15;;
18501;SDS011;68437;52.236;5.710;2023-05-23T14:26:06;11.73;;;3.10;;
18501;SDS011;68437;52.236;5.710;2023-05-23T14:28:34;17.40;;;3.03;;
18501;SDS011;68437;52.236;5.710;2023-05-23T14:31:03;12.38;;;2.97;;
18501;SDS011;68437;52.236;5.710;2023-05-23T14:33:30;22.50;;;3.33;;
18501;SDS011;68437;52.236;5.710;2023-05-23T14:35:57;14.48;;;2.83;;
18501;SDS011;68437;52.236;5.710;2023-05-23T14:38:24;14.20;;;2.95;;
18501;SDS011;68437;52.236;5.710;2023-05-23T14:40:52;11.68;;;2.97;;
18501;SDS011;68437;52.236;5.710;2023-05-23T14:43:19;13.80;;;2.60;;
18501;SDS011;68437;52.236;5.710;2023-05-23T14:45:47;11.48;;;3.00;;